| time (UTC) | temp F | wind direction | speed MPH | gust MPH | rain 1hr in | rain 24hr in | rain mn in | humidity % | barometer mb |
| 20260509011433 | 62 | 181 | 0.0 | 1.0 | 0.00 | 0.00 | 0.00 | 47 | 1043.5 |
| 20260509010930 | 62 | 181 | 0.0 | 1.0 | 0.00 | 0.00 | 0.00 | 44 | 1043.7 |
| 20260509010428 | 62 | 181 | 0.0 | 1.0 | 0.00 | 0.00 | 0.00 | 44 | 1043.9 |
| 20260509005925 | 63 | 181 | 0.0 | 0.0 | 0.00 | 0.00 | 0.00 | 44 | 1043.9 |
| 20260509005423 | 63 | 180 | 1.0 | 1.0 | 0.00 | 0.00 | 0.00 | 43 | 1043.7 |
| 20260509004922 | 63 | 179 | 1.0 | 1.0 | 0.00 | 0.00 | 0.00 | 44 | 1043.8 |
| 20260509004420 | 64 | 179 | 1.0 | 2.0 | 0.00 | 0.00 | 0.00 | 42 | 1043.6 |
| 20260509003917 | 64 | 170 | 2.0 | 2.0 | 0.00 | 0.00 | 0.00 | 42 | 1043.6 |
| 20260509003415 | 64 | 170 | 2.0 | 2.0 | 0.00 | 0.00 | 0.00 | 41 | 1043.8 |
| 20260509002911 | 65 | 171 | 1.0 | 2.0 | 0.00 | 0.00 | 0.00 | 41 | 1043.7 |
| 20260509002410 | 65 | 258 | 3.0 | 3.0 | 0.00 | 0.00 | 0.00 | 40 | 1043.5 |
| 20260509001906 | 66 | 219 | 2.0 | 3.0 | 0.00 | 0.00 | 0.00 | 39 | 1043.6 |
| 20260509001402 | 66 | 217 | 1.0 | 3.0 | 0.00 | 0.00 | 0.00 | 41 | 1043.9 |
| 20260509000900 | 67 | 225 | 3.0 | 3.0 | 0.00 | 0.00 | 0.00 | 38 | 1043.8 |
| 20260509000358 | 67 | 223 | 3.0 | 4.0 | 0.00 | 0.00 | 0.00 | 38 | 1044.3 |
| 20260508235853 | 67 | 244 | 2.0 | 2.0 | 0.00 | 0.00 | 0.00 | 38 | 1044.0 |
| 20260508235351 | 68 | 251 | 4.0 | 6.0 | 0.00 | 0.00 | 0.00 | 37 | 1044.2 |
| 20260508234848 | 68 | 232 | 1.0 | 3.0 | 0.00 | 0.00 | 0.00 | 39 | 1043.8 |
| 20260508234344 | 67 | 248 | 2.0 | 6.0 | 0.00 | 0.00 | 0.00 | 38 | 1044.1 |
| 20260508233843 | 67 | 230 | 2.0 | 4.0 | 0.00 | 0.00 | 0.00 | 37 | 1043.8 |
| 20260508233342 | 67 | 204 | 4.0 | 4.0 | 0.00 | 0.00 | 0.00 | 38 | 1044.0 |
| 20260508232838 | 67 | 219 | 3.0 | 4.0 | 0.00 | 0.00 | 0.00 | 37 | 1044.3 |
| 20260508232334 | 68 | 236 | 3.0 | 8.0 | 0.00 | 0.00 | 0.00 | 37 | 1044.2 |
| 20260508231833 | 68 | 228 | 3.0 | 7.0 | 0.00 | 0.00 | 0.00 | 36 | 1044.1 |
| 20260508231329 | 69 | 204 | 3.0 | 7.0 | 0.00 | 0.00 | 0.00 | 35 | 1043.9 |
| 20260508230826 | 69 | 245 | 6.0 | 8.0 | 0.00 | 0.00 | 0.00 | 34 | 1044.3 |
| 20260508230322 | 69 | 265 | 6.0 | 9.0 | 0.00 | 0.00 | 0.00 | 34 | 1044.3 |
| 20260508225820 | 69 | 238 | 5.0 | 10.0 | 0.00 | 0.00 | 0.00 | 35 | 1044.2 |
| 20260508225316 | 70 | 243 | 6.0 | 13.0 | 0.00 | 0.00 | 0.00 | 33 | 1044.2 |
| 20260508224814 | 70 | 240 | 8.0 | 10.0 | 0.00 | 0.00 | 0.00 | 34 | 1044.2 |
| 20260508224312 | 70 | 257 | 4.0 | 11.0 | 0.00 | 0.00 | 0.00 | 34 | 1043.9 |
| 20260508223809 | 71 | 223 | 3.0 | 8.0 | 0.00 | 0.00 | 0.00 | 35 | 1044.2 |
| 20260508223306 | 71 | 224 | 5.0 | 10.0 | 0.00 | 0.00 | 0.00 | 33 | 1044.3 |
| 20260508222804 | 71 | 262 | 3.0 | 4.0 | 0.00 | 0.00 | 0.00 | 34 | 1044.0 |
| 20260508222301 | 71 | 263 | 8.0 | 10.0 | 0.00 | 0.00 | 0.00 | 32 | 1044.2 |
| 20260508221757 | 71 | 272 | 4.0 | 9.0 | 0.00 | 0.00 | 0.00 | 33 | 1044.2 |
| 20260508221253 | 71 | 227 | 6.0 | 7.0 | 0.00 | 0.00 | 0.00 | 32 | 1044.3 |
| 20260508220750 | 71 | 231 | 4.0 | 7.0 | 0.00 | 0.00 | 0.00 | 33 | 1043.9 |
| 20260508220246 | 71 | 230 | 2.0 | 8.0 | 0.00 | 0.00 | 0.00 | 33 | 1044.1 |
| 20260508215742 | 71 | 320 | 5.0 | 9.0 | 0.00 | 0.00 | 0.00 | 32 | 1044.0 |
| 20260508215239 | 71 | 227 | 5.0 | 9.0 | 0.00 | 0.00 | 0.00 | 34 | 1044.5 |
| 20260508214737 | 71 | 279 | 6.0 | 7.0 | 0.00 | 0.00 | 0.00 | 34 | 1044.1 |
| 20260508214234 | 71 | 285 | 6.0 | 10.0 | 0.00 | 0.00 | 0.00 | 30 | 1044.1 |
| 20260508213730 | 71 | 249 | 6.0 | 14.0 | 0.00 | 0.00 | 0.00 | 32 | 1044.4 |
| 20260508213226 | 71 | 208 | 4.0 | 11.0 | 0.00 | 0.00 | 0.00 | 33 | 1044.1 |
| 20260508212723 | 72 | 263 | 7.0 | 10.0 | 0.00 | 0.00 | 0.00 | 30 | 1044.2 |
| 20260508212219 | 71 | 198 | 4.0 | 7.0 | 0.00 | 0.00 | 0.00 | 35 | 1043.9 |
| 20260508211715 | 71 | 161 | 6.0 | 14.0 | 0.00 | 0.00 | 0.00 | 30 | 1043.9 |
| 20260508211211 | 71 | 233 | 4.0 | 8.0 | 0.00 | 0.00 | 0.00 | 32 | 1044.3 |
| 20260508210709 | 72 | 258 | 9.0 | 11.0 | 0.00 | 0.00 | 0.00 | 32 | 1044.1 |
| 20260508210206 | 72 | 256 | 6.0 | 9.0 | 0.00 | 0.00 | 0.00 | 33 | 1044.3 |
| 20260508205702 | 71 | 277 | 5.0 | 8.0 | 0.00 | 0.00 | 0.00 | 29 | 1044.6 |
| 20260508205159 | 71 | 244 | 7.0 | 13.0 | 0.00 | 0.00 | 0.00 | 32 | 1044.6 |
| 20260508204655 | 71 | 256 | 6.0 | 10.0 | 0.00 | 0.00 | 0.00 | 32 | 1044.9 |
| 20260508204151 | 71 | 250 | 5.0 | 8.0 | 0.00 | 0.00 | 0.00 | 30 | 1044.7 |
| 20260508203648 | 71 | 258 | 5.0 | 10.0 | 0.00 | 0.00 | 0.00 | 35 | 1045.0 |
| 20260508203144 | 72 | 334 | 6.0 | 11.0 | 0.00 | 0.00 | 0.00 | 31 | 1045.0 |
| 20260508202640 | 71 | 224 | 6.0 | 8.0 | 0.00 | 0.00 | 0.00 | 35 | 1045.0 |
| 20260508202138 | 71 | 217 | 6.0 | 9.0 | 0.00 | 0.00 | 0.00 | 33 | 1044.7 |
| 20260508201634 | 71 | 270 | 6.0 | 8.0 | 0.00 | 0.00 | 0.00 | 33 | 1044.9 |
| 20260508201131 | 71 | 248 | 4.0 | 8.0 | 0.00 | 0.00 | 0.00 | 32 | 1045.5 |
| 20260508200628 | 71 | 253 | 6.0 | 9.0 | 0.00 | 0.00 | 0.00 | 34 | 1045.7 |
| 20260508200124 | 71 | 271 | 7.0 | 10.0 | 0.00 | 0.00 | 0.00 | 33 | 1045.3 |
| 20260508195620 | 71 | 317 | 9.0 | 11.0 | 0.00 | 0.00 | 0.00 | 34 | 1045.4 |
| 20260508195117 | 72 | 307 | 4.0 | 10.0 | 0.00 | 0.00 | 0.00 | 32 | 1045.6 |
| 20260508194613 | 72 | 270 | 5.0 | 8.0 | 0.00 | 0.00 | 0.00 | 29 | 1045.6 |
| 20260508194111 | 71 | 298 | 3.0 | 4.0 | 0.00 | 0.00 | 0.00 | 34 | 1045.2 |
| 20260508193608 | 71 | 257 | 4.0 | 13.0 | 0.00 | 0.00 | 0.00 | 38 | 1045.4 |
| 20260508193104 | 71 | 202 | 6.0 | 9.0 | 0.00 | 0.00 | 0.00 | 33 | 1045.4 |
| 20260508192601 | 71 | 186 | 3.0 | 6.0 | 0.00 | 0.00 | 0.00 | 37 | 1045.3 |
| 20260508192058 | 70 | 248 | 8.0 | 9.0 | 0.00 | 0.00 | 0.00 | 32 | 1045.3 |
| 20260508191554 | 71 | 255 | 6.0 | 11.0 | 0.00 | 0.00 | 0.00 | 36 | 1045.4 |
| 20260508191051 | 70 | 218 | 2.0 | 8.0 | 0.00 | 0.00 | 0.00 | 42 | 1045.5 |
| 20260508190548 | 71 | 163 | 4.0 | 9.0 | 0.00 | 0.00 | 0.00 | 39 | 1045.4 |
| 20260508190045 | 71 | 205 | 4.0 | 13.0 | 0.00 | 0.00 | 0.00 | 36 | 1045.6 |
| 20260508185542 | 71 | 187 | 7.0 | 8.0 | 0.00 | 0.00 | 0.00 | 30 | 1045.6 |
| 20260508185039 | 70 | 236 | 3.0 | 9.0 | 0.00 | 0.00 | 0.00 | 37 | 1045.8 |
| 20260508184537 | 70 | 310 | 7.0 | 10.0 | 0.00 | 0.00 | 0.00 | 31 | 1045.8 |
| 20260508184033 | 70 | 216 | 6.0 | 8.0 | 0.00 | 0.00 | 0.00 | 35 | 1045.9 |
| 20260508183530 | 70 | 220 | 6.0 | 10.0 | 0.00 | 0.00 | 0.00 | 34 | 1046.1 |
| 20260508183026 | 70 | 230 | 6.0 | 8.0 | 0.00 | 0.00 | 0.00 | 34 | 1045.7 |
| 20260508182523 | 70 | 213 | 7.0 | 10.0 | 0.00 | 0.00 | 0.00 | 33 | 1046.0 |
| 20260508182019 | 70 | 213 | 8.0 | 14.0 | 0.00 | 0.00 | 0.00 | 34 | 1046.1 |
| 20260508181514 | 69 | 224 | 2.0 | 8.0 | 0.00 | 0.00 | 0.00 | 40 | 1046.3 |
| 20260508181013 | 70 | 210 | 4.0 | 8.0 | 0.00 | 0.00 | 0.00 | 39 | 1046.6 |
| 20260508180509 | 69 | 200 | 5.0 | 11.0 | 0.00 | 0.00 | 0.00 | 34 | 1046.6 |
| 20260508180005 | 69 | 156 | 5.0 | 9.0 | 0.00 | 0.00 | 0.00 | 34 | 1046.4 |
| 20260508175502 | 69 | 202 | 5.0 | 11.0 | 0.00 | 0.00 | 0.00 | 35 | 1046.4 |
| 20260508174959 | 70 | 211 | 8.0 | 10.0 | 0.00 | 0.00 | 0.00 | 32 | 1046.7 |
| 20260508174457 | 69 | 229 | 3.0 | 9.0 | 0.00 | 0.00 | 0.00 | 37 | 1047.2 |
| 20260508173953 | 69 | 228 | 4.0 | 8.0 | 0.00 | 0.00 | 0.00 | 39 | 1047.7 |
| 20260508173451 | 70 | 245 | 4.0 | 6.0 | 0.00 | 0.00 | 0.00 | 35 | 1047.3 |
| 20260508172946 | 69 | 210 | 4.0 | 8.0 | 0.00 | 0.00 | 0.00 | 41 | 1047.5 |
| 20260508172444 | 68 | 272 | 5.0 | 9.0 | 0.00 | 0.00 | 0.00 | 36 | 1047.5 |
| 20260508171940 | 68 | 222 | 5.0 | 9.0 | 0.00 | 0.00 | 0.00 | 36 | 1047.9 |
| 20260508171437 | 68 | 258 | 5.0 | 9.0 | 0.00 | 0.00 | 0.00 | 36 | 1047.5 |
| 20260508170933 | 68 | 250 | 4.0 | 6.0 | 0.00 | 0.00 | 0.00 | 38 | 1047.9 |
| 20260508170431 | 69 | 221 | 6.0 | 9.0 | 0.00 | 0.00 | 0.00 | 37 | 1047.9 |
| 20260508165927 | 68 | 245 | 4.0 | 6.0 | 0.00 | 0.00 | 0.00 | 39 | 1048.1 |
| 20260508165426 | 68 | 312 | 4.0 | 7.0 | 0.00 | 0.00 | 0.00 | 35 | 1048.1 |
| 20260508164921 | 68 | 256 | 2.0 | 9.0 | 0.00 | 0.00 | 0.00 | 41 | 1048.2 |
| 20260508164418 | 68 | 254 | 6.0 | 13.0 | 0.00 | 0.00 | 0.00 | 38 | 1048.8 |
| 20260508163915 | 67 | 168 | 8.0 | 11.0 | 0.00 | 0.00 | 0.00 | 39 | 1048.7 |
| 20260508163413 | 67 | 197 | 5.0 | 8.0 | 0.00 | 0.00 | 0.00 | 39 | 1048.8 |
| 20260508162908 | 67 | 204 | 4.0 | 7.0 | 0.00 | 0.00 | 0.00 | 42 | 1048.7 |
| 20260508162406 | 67 | 209 | 4.0 | 8.0 | 0.00 | 0.00 | 0.00 | 40 | 1048.7 |
| 20260508161903 | 67 | 235 | 4.0 | 8.0 | 0.00 | 0.00 | 0.00 | 40 | 1048.9 |
| 20260508161400 | 67 | 260 | 9.0 | 9.0 | 0.00 | 0.00 | 0.00 | 38 | 1049.1 |
| 20260508160857 | 66 | 227 | 6.0 | 13.0 | 0.00 | 0.00 | 0.00 | 41 | 1049.0 |
| 20260508160356 | 66 | 255 | 4.0 | 7.0 | 0.00 | 0.00 | 0.00 | 41 | 1048.9 |
| 20260508155852 | 66 | 205 | 6.0 | 8.0 | 0.00 | 0.00 | 0.00 | 40 | 1048.9 |
| 20260508155349 | 66 | 223 | 4.0 | 4.0 | 0.00 | 0.00 | 0.00 | 46 | 1049.1 |
| 20260508154846 | 66 | 234 | 7.0 | 10.0 | 0.00 | 0.00 | 0.00 | 41 | 1049.4 |
| 20260508154344 | 66 | 276 | 3.0 | 7.0 | 0.00 | 0.00 | 0.00 | 39 | 1049.1 |
| 20260508153840 | 66 | 249 | 3.0 | 6.0 | 0.00 | 0.00 | 0.00 | 41 | 1049.4 |
| 20260508153337 | 65 | 304 | 6.0 | 8.0 | 0.00 | 0.00 | 0.00 | 43 | 1049.4 |
| 20260508152833 | 65 | 276 | 4.0 | 7.0 | 0.00 | 0.00 | 0.00 | 45 | 1049.5 |
| 20260508152330 | 65 | 230 | 4.0 | 6.0 | 0.00 | 0.00 | 0.00 | 44 | 1049.6 |
| 20260508151826 | 65 | 268 | 6.0 | 10.0 | 0.00 | 0.00 | 0.00 | 42 | 1049.7 |
| 20260508151323 | 65 | 225 | 2.0 | 9.0 | 0.00 | 0.00 | 0.00 | 41 | 1049.6 |
| 20260508150819 | 64 | 226 | 3.0 | 7.0 | 0.00 | 0.00 | 0.00 | 40 | 1049.7 |
| 20260508150316 | 64 | 263 | 6.0 | 8.0 | 0.00 | 0.00 | 0.00 | 42 | 1049.8 |
| 20260508145812 | 64 | 273 | 3.0 | 3.0 | 0.00 | 0.00 | 0.00 | 44 | 1050.0 |
| 20260508145309 | 64 | 250 | 2.0 | 4.0 | 0.00 | 0.00 | 0.00 | 41 | 1049.8 |
| 20260508144806 | 64 | 248 | 6.0 | 7.0 | 0.00 | 0.00 | 0.00 | 43 | 1049.5 |
| 20260508144304 | 63 | 272 | 2.0 | 6.0 | 0.00 | 0.00 | 0.00 | 43 | 1049.7 |
| 20260508143801 | 63 | 254 | 3.0 | 7.0 | 0.00 | 0.00 | 0.00 | 44 | 1049.5 |
| 20260508143258 | 63 | 249 | 3.0 | 7.0 | 0.00 | 0.00 | 0.00 | 47 | 1049.8 |
| 20260508142754 | 62 | 233 | 4.0 | 7.0 | 0.00 | 0.00 | 0.00 | 45 | 1049.6 |
| 20260508142251 | 62 | 248 | 4.0 | 8.0 | 0.00 | 0.00 | 0.00 | 46 | 1049.8 |
| 20260508141748 | 62 | 232 | 4.0 | 4.0 | 0.00 | 0.00 | 0.00 | 45 | 1049.4 |
| 20260508141245 | 61 | 204 | 3.0 | 6.0 | 0.00 | 0.00 | 0.00 | 47 | 1049.8 |
| 20260508140742 | 61 | 250 | 4.0 | 6.0 | 0.00 | 0.00 | 0.00 | 49 | 1049.7 |
| 20260508140239 | 60 | 256 | 4.0 | 3.0 | 0.00 | 0.00 | 0.00 | 52 | 1049.6 |
| 20260508135735 | 60 | 220 | 3.0 | 4.0 | 0.00 | 0.00 | 0.00 | 52 | 1049.7 |
| 20260508135231 | 59 | 264 | 3.0 | 6.0 | 0.00 | 0.00 | 0.00 | 55 | 1049.7 |
| 20260508134727 | 58 | 274 | 1.0 | 3.0 | 0.00 | 0.00 | 0.00 | 55 | 1049.5 |
| 20260508134225 | 58 | 250 | 3.0 | 4.0 | 0.00 | 0.00 | 0.00 | 55 | 1049.8 |
| 20260508133721 | 57 | 254 | 2.0 | 3.0 | 0.00 | 0.00 | 0.00 | 57 | 1049.9 |
| 20260508133219 | 56 | 236 | 2.0 | 3.0 | 0.00 | 0.00 | 0.00 | 60 | 1049.3 |
| 20260508132716 | 55 | 239 | 1.0 | 2.0 | 0.00 | 0.00 | 0.00 | 64 | 1049.7 |
| 20260508132214 | 55 | 227 | 2.0 | 2.0 | 0.00 | 0.00 | 0.00 | 66 | 1049.8 |
| 20260508131709 | 54 | 253 | 2.0 | 2.0 | 0.00 | 0.00 | 0.00 | 68 | 1049.8 |
| 20260508131206 | 53 | 256 | 1.0 | 2.0 | 0.00 | 0.00 | 0.00 | 71 | 1050.0 |
| 20260508130702 | 53 | 264 | 2.0 | 2.0 | 0.00 | 0.00 | 0.00 | 68 | 1050.1 |
| 20260508130159 | 52 | 231 | 2.0 | 2.0 | 0.00 | 0.00 | 0.00 | 72 | 1049.7 |
| 20260508125655 | 51 | 221 | 1.0 | 2.0 | 0.00 | 0.00 | 0.00 | 71 | 1049.8 |
| 20260508125151 | 50 | 221 | 2.0 | 3.0 | 0.00 | 0.00 | 0.00 | 73 | 1049.9 |
| 20260508124650 | 49 | 231 | 2.0 | 2.0 | 0.00 | 0.00 | 0.00 | 74 | 1050.0 |
| 20260508124146 | 48 | 168 | 1.0 | 2.0 | 0.00 | 0.00 | 0.00 | 76 | 1049.9 |
| 20260508123645 | 47 | 194 | 2.0 | 2.0 | 0.00 | 0.00 | 0.00 | 78 | 1050.0 |
| 20260508123142 | 46 | 194 | 1.0 | 2.0 | 0.00 | 0.00 | 0.00 | 79 | 1050.0 |
| 20260508122638 | 46 | 164 | 2.0 | 3.0 | 0.00 | 0.00 | 0.00 | 79 | 1049.8 |
| 20260508122135 | 45 | 175 | 1.0 | 2.0 | 0.00 | 0.00 | 0.00 | 80 | 1049.9 |
| 20260508121633 | 44 | 162 | 1.0 | 2.0 | 0.00 | 0.00 | 0.00 | 82 | 1049.8 |
| 20260508121131 | 44 | 184 | 1.0 | 2.0 | 0.00 | 0.00 | 0.00 | 83 | 1049.9 |
| 20260508120628 | 43 | 168 | 1.0 | 3.0 | 0.00 | 0.00 | 0.00 | 84 | 1049.6 |
| 20260508120127 | 43 | 163 | 3.0 | 3.0 | 0.00 | 0.00 | 0.00 | 85 | 1049.8 |
| 20260508115624 | 42 | 204 | 2.0 | 2.0 | 0.00 | 0.00 | 0.00 | 85 | 1049.6 |
| 20260508115120 | 42 | 174 | 2.0 | 3.0 | 0.00 | 0.00 | 0.00 | 87 | 1049.4 |
| 20260508114618 | 41 | 172 | 3.0 | 3.0 | 0.00 | 0.00 | 0.00 | 89 | 1050.0 |
| 20260508114113 | 41 | 156 | 2.0 | 2.0 | 0.00 | 0.00 | 0.00 | 90 | 1049.5 |
| 20260508113611 | 41 | 152 | 1.0 | 2.0 | 0.00 | 0.00 | 0.00 | 91 | 1049.5 |
| 20260508113109 | 40 | 165 | 1.0 | 2.0 | 0.00 | 0.00 | 0.00 | 93 | 1049.5 |
| 20260508112605 | 39 | 158 | 2.0 | 2.0 | 0.00 | 0.00 | 0.00 | 95 | 1049.3 |
| 20260508112102 | 38 | 156 | 0.0 | 0.0 | 0.00 | 0.00 | 0.00 | 94 | 1049.1 |
| 20260508111559 | 38 | 156 | 0.0 | 0.0 | 0.00 | 0.00 | 0.00 | 94 | 1049.1 |
| 20260508111056 | 38 | 156 | 0.0 | 0.0 | 0.00 | 0.00 | 0.00 | 94 | 1049.2 |
| 20260508110554 | 38 | 156 | 0.0 | 0.0 | 0.00 | 0.00 | 0.00 | 94 | 1049.2 |
| 20260508110049 | 38 | 156 | 0.0 | 1.0 | 0.00 | 0.00 | 0.00 | 95 | 1049.4 |
| 20260508105544 | 38 | 156 | 1.0 | 1.0 | 0.00 | 0.00 | 0.00 | 95 | 1049.0 |
| 20260508105042 | 37 | 156 | 1.0 | 1.0 | 0.00 | 0.00 | 0.00 | 95 | 1049.1 |
| 20260508104540 | 37 | 156 | 0.0 | 0.0 | 0.00 | 0.00 | 0.00 | 93 | 1048.9 |
| 20260508104036 | 37 | 156 | 0.0 | 0.0 | 0.00 | 0.00 | 0.00 | 93 | 1049.3 |
| 20260508103533 | 37 | 156 | 0.0 | 0.0 | 0.00 | 0.00 | 0.00 | 93 | 1048.9 |
| 20260508103031 | 38 | 156 | 0.0 | 0.0 | 0.00 | 0.00 | 0.00 | 93 | 1049.2 |
| 20260508102528 | 37 | 156 | 0.0 | 0.0 | 0.00 | 0.00 | 0.00 | 93 | 1049.1 |
| 20260508102026 | 37 | 156 | 0.0 | 0.0 | 0.00 | 0.00 | 0.00 | 92 | 1049.2 |
| 20260508101523 | 38 | 156 | 0.0 | 0.0 | 0.00 | 0.00 | 0.00 | 91 | 1048.7 |
| 20260508101020 | 38 | 156 | 0.0 | 0.0 | 0.00 | 0.00 | 0.00 | 90 | 1049.0 |
| 20260508100518 | 39 | 156 | 0.0 | 0.0 | 0.00 | 0.00 | 0.00 | 90 | 1048.7 |
| 20260508100015 | 40 | 156 | 1.0 | 1.0 | 0.00 | 0.00 | 0.00 | 90 | 1048.9 |
| 20260508095512 | 39 | 156 | 1.0 | 1.0 | 0.00 | 0.00 | 0.00 | 91 | 1048.8 |
| 20260508095009 | 40 | 156 | 0.0 | 0.0 | 0.00 | 0.00 | 0.00 | 89 | 1048.8 |
| 20260508094506 | 39 | 156 | 1.0 | 1.0 | 0.00 | 0.00 | 0.00 | 89 | 1048.9 |
| 20260508094003 | 40 | 156 | 0.0 | 0.0 | 0.00 | 0.00 | 0.00 | 89 | 1049.1 |
| 20260508093500 | 40 | 156 | 1.0 | 1.0 | 0.00 | 0.00 | 0.00 | 88 | 1049.1 |
| 20260508092957 | 40 | 156 | 1.0 | 1.0 | 0.00 | 0.00 | 0.00 | 88 | 1049.0 |
| 20260508092455 | 40 | 156 | 1.0 | 1.0 | 0.00 | 0.00 | 0.00 | 87 | 1048.5 |
| 20260508091954 | 41 | 156 | 1.0 | 1.0 | 0.00 | 0.00 | 0.00 | 88 | 1049.0 |
| 20260508091450 | 40 | 156 | 1.0 | 1.0 | 0.00 | 0.00 | 0.00 | 89 | 1049.0 |
| 20260508090947 | 40 | 157 | 2.0 | 2.0 | 0.00 | 0.00 | 0.00 | 89 | 1048.8 |
| 20260508090445 | 40 | 147 | 2.0 | 3.0 | 0.00 | 0.00 | 0.00 | 90 | 1049.1 |
| 20260508085941 | 40 | 165 | 2.0 | 2.0 | 0.00 | 0.00 | 0.00 | 91 | 1049.0 |
| 20260508085438 | 40 | 170 | 2.0 | 2.0 | 0.00 | 0.00 | 0.00 | 91 | 1048.9 |
| 20260508084935 | 40 | 174 | 3.0 | 4.0 | 0.00 | 0.00 | 0.00 | 91 | 1048.7 |
| 20260508084431 | 40 | 176 | 3.0 | 4.0 | 0.00 | 0.00 | 0.00 | 92 | 1049.0 |
| 20260508083929 | 40 | 166 | 2.0 | 3.0 | 0.00 | 0.00 | 0.00 | 91 | 1048.9 |
| 20260508083426 | 40 | 158 | 2.0 | 3.0 | 0.00 | 0.00 | 0.00 | 92 | 1049.2 |
| 20260508082926 | 40 | 172 | 2.0 | 3.0 | 0.00 | 0.00 | 0.00 | 93 | 1048.8 |
| 20260508082424 | 40 | 159 | 1.0 | 3.0 | 0.00 | 0.00 | 0.00 | 94 | 1048.8 |
| 20260508081922 | 40 | 172 | 2.0 | 2.0 | 0.00 | 0.00 | 0.00 | 94 | 1049.0 |
| 20260508081418 | 40 | 141 | 2.0 | 2.0 | 0.00 | 0.00 | 0.00 | 95 | 1048.9 |
| 20260508080914 | 40 | 166 | 1.0 | 3.0 | 0.00 | 0.00 | 0.00 | 96 | 1048.9 |
| 20260508080413 | 39 | 168 | 0.0 | 1.0 | 0.00 | 0.00 | 0.00 | 96 | 1048.9 |
| 20260508075909 | 40 | 174 | 0.0 | 1.0 | 0.00 | 0.00 | 0.00 | 96 | 1048.9 |
| 20260508075406 | 39 | 199 | 1.0 | 2.0 | 0.00 | 0.00 | 0.00 | 96 | 1049.1 |
| 20260508074904 | 38 | 202 | 1.0 | 1.0 | 0.00 | 0.00 | 0.00 | 96 | 1048.5 |
| 20260508074401 | 38 | 204 | 1.0 | 1.0 | 0.00 | 0.00 | 0.00 | 96 | 1048.8 |
| 20260508073858 | 38 | 201 | 0.0 | 0.0 | 0.00 | 0.00 | 0.00 | 96 | 1049.0 |
| 20260508073356 | 39 | 202 | 0.0 | 0.0 | 0.00 | 0.00 | 0.00 | 96 | 1048.5 |
| 20260508072852 | 38 | 204 | 1.0 | 2.0 | 0.00 | 0.00 | 0.00 | 96 | 1048.9 |
| 20260508072348 | 38 | 205 | 0.0 | 0.0 | 0.00 | 0.00 | 0.00 | 95 | 1049.0 |
| 20260508071846 | 38 | 205 | 0.0 | 0.0 | 0.00 | 0.00 | 0.00 | 95 | 1048.9 |
| 20260508071344 | 38 | 205 | 0.0 | 0.0 | 0.00 | 0.00 | 0.00 | 95 | 1048.7 |
| 20260508070841 | 38 | 205 | 0.0 | 0.0 | 0.00 | 0.00 | 0.00 | 95 | 1049.0 |
| 20260508070339 | 38 | 204 | 0.0 | 1.0 | 0.00 | 0.00 | 0.00 | 95 | 1048.8 |
| 20260508065837 | 38 | 205 | 0.0 | 0.0 | 0.00 | 0.00 | 0.00 | 95 | 1048.7 |
| 20260508065335 | 38 | 205 | 0.0 | 0.0 | 0.00 | 0.00 | 0.00 | 95 | 1049.1 |
| 20260508064833 | 38 | 205 | 0.0 | 0.0 | 0.00 | 0.00 | 0.00 | 95 | 1049.0 |
| 20260508064330 | 38 | 205 | 0.0 | 0.0 | 0.00 | 0.00 | 0.00 | 94 | 1049.1 |
| 20260508063827 | 38 | 205 | 0.0 | 0.0 | 0.00 | 0.00 | 0.00 | 94 | 1049.2 |
| 20260508063325 | 38 | 205 | 0.0 | 0.0 | 0.00 | 0.00 | 0.00 | 94 | 1049.1 |
| 20260508062822 | 39 | 204 | 0.0 | 0.0 | 0.00 | 0.00 | 0.00 | 94 | 1049.4 |
| 20260508062320 | 40 | 204 | 0.0 | 0.0 | 0.00 | 0.00 | 0.00 | 94 | 1049.2 |
| 20260508061816 | 40 | 204 | 1.0 | 1.0 | 0.00 | 0.00 | 0.00 | 95 | 1049.2 |
| 20260508061314 | 40 | 217 | 1.0 | 1.0 | 0.00 | 0.00 | 0.00 | 95 | 1049.0 |
| 20260508060810 | 38 | 217 | 0.0 | 0.0 | 0.00 | 0.00 | 0.00 | 94 | 1049.1 |
| 20260508060309 | 39 | 217 | 0.0 | 0.0 | 0.00 | 0.00 | 0.00 | 94 | 1049.2 |
| 20260508055808 | 40 | 217 | 0.0 | 0.0 | 0.00 | 0.00 | 0.00 | 94 | 1049.3 |
| 20260508055307 | 40 | 217 | 0.0 | 0.0 | 0.00 | 0.00 | 0.00 | 94 | 1049.7 |
| 20260508054803 | 40 | 217 | 0.0 | 0.0 | 0.00 | 0.00 | 0.00 | 94 | 1049.3 |
| 20260508054300 | 40 | 211 | 1.0 | 1.0 | 0.00 | 0.00 | 0.00 | 94 | 1049.4 |
| 20260508053757 | 40 | 173 | 1.0 | 1.0 | 0.00 | 0.00 | 0.00 | 94 | 1049.5 |
| 20260508053255 | 40 | 172 | 0.0 | 0.0 | 0.00 | 0.00 | 0.00 | 93 | 1049.5 |
| 20260508052752 | 40 | 176 | 1.0 | 1.0 | 0.00 | 0.00 | 0.00 | 93 | 1049.5 |
| 20260508052249 | 40 | 236 | 1.0 | 1.0 | 0.00 | 0.00 | 0.00 | 93 | 1049.4 |
| 20260508051745 | 41 | 232 | 0.0 | 1.0 | 0.00 | 0.00 | 0.00 | 94 | 1049.6 |
| 20260508051240 | 40 | 232 | 0.0 | 0.0 | 0.00 | 0.00 | 0.00 | 94 | 1049.6 |
| 20260508050737 | 41 | 232 | 1.0 | 1.0 | 0.00 | 0.00 | 0.00 | 94 | 1049.4 |
| 20260508050234 | 40 | 232 | 0.0 | 0.0 | 0.00 | 0.00 | 0.00 | 94 | 1049.4 |
| 20260508045729 | 40 | 232 | 0.0 | 0.0 | 0.00 | 0.00 | 0.00 | 94 | 1049.5 |
| 20260508045228 | 40 | 232 | 0.0 | 0.0 | 0.00 | 0.00 | 0.00 | 93 | 1049.1 |
| 20260508044725 | 41 | 232 | 0.0 | 0.0 | 0.00 | 0.00 | 0.00 | 93 | 1049.4 |
| 20260508044222 | 40 | 232 | 0.0 | 0.0 | 0.00 | 0.00 | 0.00 | 92 | 1049.4 |
| 20260508043717 | 41 | 232 | 0.0 | 0.0 | 0.00 | 0.00 | 0.00 | 92 | 1049.6 |
| 20260508043216 | 41 | 232 | 0.0 | 0.0 | 0.00 | 0.00 | 0.00 | 92 | 1049.3 |
| 20260508042712 | 42 | 232 | 0.0 | 0.0 | 0.00 | 0.00 | 0.00 | 92 | 1049.1 |
| 20260508042209 | 41 | 232 | 0.0 | 0.0 | 0.00 | 0.00 | 0.00 | 93 | 1049.4 |
| 20260508041705 | 40 | 232 | 0.0 | 0.0 | 0.00 | 0.00 | 0.00 | 92 | 1049.5 |
| 20260508041203 | 41 | 232 | 0.0 | 0.0 | 0.00 | 0.00 | 0.00 | 91 | 1049.3 |
| 20260508040659 | 41 | 232 | 0.0 | 0.0 | 0.00 | 0.00 | 0.00 | 91 | 1049.5 |
| 20260508040157 | 41 | 232 | 0.0 | 0.0 | 0.00 | 0.00 | 0.00 | 91 | 1049.2 |
| 20260508035654 | 41 | 232 | 0.0 | 0.0 | 0.00 | 0.00 | 0.00 | 90 | 1049.2 |
| 20260508035151 | 41 | 232 | 0.0 | 0.0 | 0.00 | 0.00 | 0.00 | 89 | 1049.2 |
| 20260508034647 | 41 | 232 | 0.0 | 0.0 | 0.00 | 0.00 | 0.00 | 88 | 1049.6 |
| 20260508034144 | 41 | 232 | 0.0 | 0.0 | 0.00 | 0.00 | 0.00 | 86 | 1049.5 |
| 20260508033642 | 42 | 232 | 0.0 | 0.0 | 0.00 | 0.00 | 0.00 | 85 | 1049.4 |
| 20260508033141 | 42 | 232 | 0.0 | 0.0 | 0.00 | 0.00 | 0.00 | 83 | 1049.5 |
| 20260508032636 | 43 | 232 | 0.0 | 0.0 | 0.00 | 0.00 | 0.00 | 82 | 1049.5 |
| 20260508032134 | 44 | 232 | 0.0 | 0.0 | 0.00 | 0.00 | 0.00 | 81 | 1049.6 |
| 20260508031631 | 45 | 232 | 0.0 | 0.0 | 0.00 | 0.00 | 0.00 | 81 | 1049.3 |
| 20260508031127 | 45 | 232 | 1.0 | 1.0 | 0.00 | 0.00 | 0.00 | 81 | 1049.3 |
| 20260508030623 | 46 | 232 | 1.0 | 1.0 | 0.00 | 0.00 | 0.00 | 80 | 1049.6 |
| 20260508030121 | 45 | 232 | 0.0 | 0.0 | 0.00 | 0.00 | 0.00 | 78 | 1049.5 |
| 20260508025617 | 44 | 232 | 0.0 | 0.0 | 0.00 | 0.00 | 0.00 | 82 | 1049.2 |
| 20260508025115 | 43 | 232 | 0.0 | 0.0 | 0.00 | 0.00 | 0.00 | 81 | 1049.5 |
| 20260508024610 | 44 | 232 | 0.0 | 0.0 | 0.00 | 0.00 | 0.00 | 78 | 1049.3 |
| 20260508024108 | 45 | 232 | 0.0 | 0.0 | 0.00 | 0.00 | 0.00 | 76 | 1049.2 |
| 20260508023604 | 46 | 232 | 0.0 | 0.0 | 0.00 | 0.00 | 0.00 | 76 | 1049.1 |
| 20260508023101 | 47 | 232 | 0.0 | 0.0 | 0.00 | 0.00 | 0.00 | 73 | 1049.2 |
| 20260508022557 | 47 | 232 | 0.0 | 0.0 | 0.00 | 0.00 | 0.00 | 72 | 1049.3 |
| 20260508022054 | 47 | 232 | 0.0 | 1.0 | 0.00 | 0.00 | 0.00 | 71 | 1049.0 |
| 20260508021550 | 47 | 232 | 0.0 | 1.0 | 0.00 | 0.00 | 0.00 | 73 | 1048.8 |
| 20260508021046 | 47 | 232 | 0.0 | 1.0 | 0.00 | 0.00 | 0.00 | 73 | 1048.9 |
| 20260508020544 | 46 | 232 | 0.0 | 0.0 | 0.00 | 0.00 | 0.00 | 73 | 1049.1 |
| 20260508020041 | 47 | 232 | 0.0 | 0.0 | 0.00 | 0.00 | 0.00 | 72 | 1049.1 |
| 20260508015539 | 48 | 232 | 0.0 | 0.0 | 0.00 | 0.00 | 0.00 | 69 | 1048.8 |
| 20260508015036 | 49 | 232 | 0.0 | 0.0 | 0.00 | 0.00 | 0.00 | 68 | 1048.9 |
| 20260508014532 | 50 | 232 | 0.0 | 1.0 | 0.00 | 0.00 | 0.00 | 61 | 1048.8 |
| 20260508014028 | 50 | 232 | 1.0 | 1.0 | 0.00 | 0.00 | 0.00 | 60 | 1049.0 |
| 20260508013524 | 48 | 306 | 1.0 | 1.0 | 0.00 | 0.00 | 0.00 | 63 | 1048.8 |
| 20260508013022 | 48 | 308 | 0.0 | 0.0 | 0.00 | 0.00 | 0.00 | 69 | 1048.3 |
| 20260508012519 | 48 | 308 | 0.0 | 0.0 | 0.00 | 0.00 | 0.00 | 66 | 1048.7 |
| 20260508012016 | 49 | 308 | 0.0 | 0.0 | 0.00 | 0.00 | 0.00 | 63 | 1048.8 |